createdAt,value
2018-12-17T00:02:24.157Z,5.63
2018-12-17T00:04:50.956Z,5.50
2018-12-17T00:07:17.638Z,7.20
2018-12-17T00:09:44.353Z,6.40
2018-12-17T00:12:16.558Z,6.78
2018-12-17T00:14:39.776Z,5.63
2018-12-17T00:17:06.447Z,5.43
2018-12-17T00:19:33.160Z,5.80
2018-12-17T00:22:00.079Z,5.17
2018-12-17T00:24:26.975Z,5.50
2018-12-17T00:26:53.705Z,5.27
2018-12-17T00:29:20.752Z,4.70
2018-12-17T00:31:47.502Z,6.00
2018-12-17T00:34:14.217Z,6.00
2018-12-17T00:36:40.896Z,5.40
2018-12-17T00:39:07.631Z,5.77
2018-12-17T00:41:34.316Z,5.80
2018-12-17T00:44:01.099Z,5.60
2018-12-17T00:46:27.783Z,5.97
2018-12-17T00:48:54.586Z,6.10
2018-12-17T00:51:21.658Z,5.40
2018-12-17T00:53:48.384Z,5.83
2018-12-17T00:56:15.071Z,7.60
2018-12-17T00:58:41.786Z,6.37
2018-12-17T01:01:08.478Z,6.53
2018-12-17T01:03:35.290Z,5.73
2018-12-17T01:06:02.009Z,5.43
2018-12-17T01:08:28.784Z,6.20
2018-12-17T01:10:55.498Z,6.10
2018-12-17T01:13:22.382Z,6.50
2018-12-17T01:15:49.087Z,6.67
2018-12-17T01:18:15.789Z,5.93
2018-12-17T01:20:42.496Z,6.07
2018-12-17T01:23:09.175Z,4.70
2018-12-17T01:25:35.888Z,6.13
2018-12-17T01:28:02.668Z,6.00
2018-12-17T01:30:29.379Z,5.73
2018-12-17T01:32:56.057Z,5.70
2018-12-17T01:35:22.856Z,5.63
2018-12-17T01:37:49.574Z,5.13
2018-12-17T01:40:16.291Z,5.83
2018-12-17T01:42:42.968Z,5.60
2018-12-17T01:45:09.686Z,5.83
2018-12-17T01:47:36.369Z,6.23
2018-12-17T01:50:03.948Z,5.42
2018-12-17T01:52:30.624Z,5.20
2018-12-17T01:54:57.383Z,5.30
2018-12-17T01:57:24.206Z,5.67
2018-12-17T01:59:50.982Z,5.03
2018-12-17T02:02:17.801Z,5.90
2018-12-17T02:04:44.505Z,6.27
2018-12-17T02:07:11.194Z,5.33
2018-12-17T02:09:37.913Z,5.40
2018-12-17T02:12:04.683Z,6.23
2018-12-17T02:14:31.399Z,6.83
2018-12-17T02:16:58.175Z,7.05
2018-12-17T02:19:24.889Z,6.57
2018-12-17T02:21:51.830Z,7.00
2018-12-17T02:24:18.758Z,7.60
2018-12-17T02:26:45.444Z,7.13
2018-12-17T02:29:12.161Z,6.37
2018-12-17T02:31:38.840Z,6.07
2018-12-17T02:34:05.562Z,5.87
2018-12-17T02:36:32.316Z,6.30
2018-12-17T02:38:59.048Z,6.00
2018-12-17T02:41:25.775Z,7.10
2018-12-17T02:43:52.708Z,6.50
2018-12-17T02:46:19.507Z,5.30
2018-12-17T02:48:46.220Z,5.93
2018-12-17T02:51:12.923Z,5.53
2018-12-17T02:53:39.598Z,5.87
2018-12-17T02:56:06.303Z,5.73
2018-12-17T02:58:33.060Z,5.60
2018-12-17T03:00:59.774Z,6.20
2018-12-17T03:03:26.488Z,5.83
2018-12-17T03:05:53.361Z,5.60
2018-12-17T03:08:20.047Z,5.97
2018-12-17T03:10:46.759Z,5.90
2018-12-17T03:13:13.436Z,5.93
2018-12-17T03:15:40.152Z,6.50
2018-12-17T03:18:06.836Z,6.47
2018-12-17T03:20:33.639Z,6.03
2018-12-17T03:23:00.396Z,5.33
2018-12-17T03:25:27.185Z,5.63
2018-12-17T03:27:53.969Z,5.70
2018-12-17T03:30:20.702Z,5.47
2018-12-17T03:32:47.492Z,6.10
2018-12-17T03:35:14.275Z,5.23
2018-12-17T03:37:40.969Z,5.93
2018-12-17T03:40:07.759Z,6.20
2018-12-17T03:42:34.524Z,5.90
2018-12-17T03:45:01.255Z,6.33
2018-12-17T03:47:27.987Z,6.20
2018-12-17T03:49:54.796Z,6.03
2018-12-17T03:52:21.648Z,6.53
2018-12-17T03:54:48.357Z,5.83
2018-12-17T03:57:15.047Z,6.57
2018-12-17T03:59:41.754Z,6.03
2018-12-17T04:02:08.467Z,5.07
2018-12-17T04:04:35.176Z,6.40
2018-12-17T04:07:01.870Z,6.50
2018-12-17T04:09:28.569Z,5.10
2018-12-17T04:11:55.402Z,5.27
2018-12-17T04:14:22.131Z,5.80
2018-12-17T04:16:48.831Z,5.90
2018-12-17T04:19:15.515Z,5.23
2018-12-17T04:21:42.230Z,6.10
2018-12-17T04:24:08.921Z,6.23
2018-12-17T04:26:35.623Z,5.50
2018-12-17T04:29:06.800Z,6.00
2018-12-17T04:31:31.032Z,5.00
2018-12-17T04:33:57.830Z,4.87
2018-12-17T04:36:24.835Z,5.20
2018-12-17T04:38:51.559Z,5.00
2018-12-17T04:41:18.273Z,5.90
2018-12-17T04:43:44.976Z,5.40
2018-12-17T04:46:11.696Z,6.03
2018-12-17T04:48:38.380Z,6.20
2018-12-17T04:51:06.453Z,6.07
2018-12-17T04:53:33.131Z,5.63
2018-12-17T04:55:59.837Z,5.57
2018-12-17T04:58:26.641Z,4.83
2018-12-17T05:00:53.352Z,5.80
2018-12-17T05:03:20.030Z,5.70
2018-12-17T05:05:47.312Z,6.53
2018-12-17T05:08:13.996Z,5.00
2018-12-17T05:10:40.704Z,5.30
2018-12-17T05:13:07.383Z,5.37
2018-12-17T05:15:34.094Z,6.70
2018-12-17T05:18:00.852Z,5.37
2018-12-17T05:20:27.608Z,4.73
2018-12-17T05:22:54.333Z,5.67
2018-12-17T05:25:21.213Z,5.57
2018-12-17T05:27:47.896Z,5.83
2018-12-17T05:30:14.797Z,5.87
2018-12-17T05:32:41.473Z,5.40
2018-12-17T05:35:08.235Z,5.60
2018-12-17T05:37:35.046Z,6.17
2018-12-17T05:40:01.941Z,4.90
2018-12-17T05:42:28.658Z,5.87
2018-12-17T05:44:55.715Z,5.07
2018-12-17T05:47:22.466Z,5.17
2018-12-17T05:49:49.152Z,5.60
2018-12-17T05:52:15.871Z,4.70
2018-12-17T05:54:42.554Z,6.00
2018-12-17T05:57:09.272Z,6.07
2018-12-17T05:59:36.018Z,6.13
2018-12-17T06:02:02.774Z,6.17
2018-12-17T06:04:29.531Z,5.30
2018-12-17T06:06:56.464Z,5.27
2018-12-17T06:09:23.308Z,6.80
2018-12-17T06:11:50.094Z,5.60
2018-12-17T06:14:16.774Z,5.47
2018-12-17T06:16:43.484Z,4.67
2018-12-17T06:19:10.216Z,4.73
2018-12-17T06:21:36.979Z,5.03
2018-12-17T06:24:03.652Z,5.60
2018-12-17T06:26:30.385Z,5.67
2018-12-17T06:28:57.153Z,6.13
2018-12-17T06:31:23.861Z,5.40
2018-12-17T06:33:50.540Z,5.50
2018-12-17T06:36:17.263Z,5.10
2018-12-17T06:38:43.956Z,6.90
2018-12-17T06:41:10.668Z,9.30
2018-12-17T06:43:37.525Z,7.43
2018-12-17T06:46:04.236Z,6.20
2018-12-17T06:48:30.993Z,7.17
2018-12-17T06:50:57.811Z,7.73
2018-12-17T06:53:24.537Z,6.73
2018-12-17T06:55:51.243Z,7.67
2018-12-17T06:58:18.104Z,6.00
2018-12-17T07:00:44.817Z,7.87
2018-12-17T07:03:11.505Z,7.87
2018-12-17T07:05:38.258Z,6.50
2018-12-17T07:08:04.941Z,25.07
2018-12-17T07:10:31.651Z,92.07
2018-12-17T07:12:58.393Z,95.00
2018-12-17T07:15:25.133Z,43.60
2018-12-17T07:17:51.846Z,29.90
2018-12-17T07:20:18.628Z,28.50
2018-12-17T07:22:45.352Z,24.80
2018-12-17T07:25:12.032Z,19.43
2018-12-17T07:27:38.760Z,19.37
2018-12-17T07:30:06.116Z,18.33
2018-12-17T07:32:32.912Z,15.30
2018-12-17T07:34:59.661Z,15.50
2018-12-17T07:37:26.678Z,14.00
2018-12-17T07:39:53.432Z,13.87
2018-12-17T07:42:20.163Z,13.63
2018-12-17T07:44:46.843Z,13.90
2018-12-17T07:47:13.570Z,13.10
2018-12-17T07:49:40.265Z,12.33
2018-12-17T07:52:07.039Z,11.68
2018-12-17T07:54:33.944Z,11.63
2018-12-17T07:57:00.726Z,11.97
2018-12-17T07:59:27.773Z,10.53
2018-12-17T08:01:54.543Z,11.73
2018-12-17T08:04:21.238Z,11.23
2018-12-17T08:06:47.975Z,10.78
2018-12-17T08:09:14.654Z,9.10
2018-12-17T08:11:41.335Z,9.30
2018-12-17T08:14:08.110Z,10.50
2018-12-17T08:16:34.808Z,10.40
2018-12-17T08:19:01.618Z,9.27
2018-12-17T08:21:28.492Z,9.60
2018-12-17T08:23:55.312Z,8.97
2018-12-17T08:26:21.996Z,9.87
2018-12-17T08:28:48.711Z,8.50
2018-12-17T08:31:15.399Z,8.40
2018-12-17T08:33:42.096Z,8.80
2018-12-17T08:36:08.813Z,8.57
2018-12-17T08:38:35.525Z,8.03
2018-12-17T08:41:02.315Z,7.30
2018-12-17T08:43:29.194Z,9.33
2018-12-17T08:45:55.880Z,6.75
2018-12-17T08:48:22.597Z,8.80
2018-12-17T08:50:49.276Z,7.77
2018-12-17T08:53:15.996Z,7.87
2018-12-17T08:55:42.672Z,8.03
2018-12-17T08:58:09.468Z,8.07
2018-12-17T09:00:36.147Z,6.60
2018-12-17T09:03:02.857Z,6.93
2018-12-17T09:05:29.781Z,6.97
2018-12-17T09:07:56.512Z,7.40
2018-12-17T09:10:23.221Z,7.23
2018-12-17T09:12:49.900Z,6.57
2018-12-17T09:15:16.606Z,7.87
2018-12-17T09:17:43.288Z,6.90
2018-12-17T09:20:10.080Z,7.40
2018-12-17T09:22:36.756Z,6.43
2018-12-17T09:25:04.342Z,6.10
2018-12-17T09:27:31.182Z,5.90
2018-12-17T09:29:57.896Z,5.70
2018-12-17T09:32:24.636Z,5.87
2018-12-17T09:34:51.351Z,6.30
2018-12-17T09:37:18.035Z,5.90
2018-12-17T09:39:44.756Z,6.13
2018-12-17T09:42:11.429Z,6.40
2018-12-17T09:44:38.136Z,5.77
2018-12-17T09:47:04.867Z,6.57
2018-12-17T09:49:31.637Z,5.70
2018-12-17T09:51:58.358Z,5.83
2018-12-17T09:54:25.133Z,7.40
2018-12-17T09:56:51.947Z,6.07
2018-12-17T09:59:18.705Z,7.90
2018-12-17T10:01:47.357Z,6.57
2018-12-17T10:04:14.066Z,5.57
2018-12-17T10:06:40.748Z,6.43
2018-12-17T10:09:07.461Z,6.07
2018-12-17T10:11:34.145Z,6.77
2018-12-17T10:14:00.854Z,6.77
2018-12-17T10:16:28.407Z,5.73
2018-12-17T10:18:55.205Z,5.17
2018-12-17T10:21:21.930Z,5.10
2018-12-17T10:23:48.780Z,5.73
2018-12-17T10:26:15.767Z,6.63
2018-12-17T10:28:42.449Z,6.27
2018-12-17T10:31:09.160Z,5.27
2018-12-17T10:33:36.024Z,5.50
2018-12-17T10:36:02.728Z,6.03
2018-12-17T10:38:29.675Z,5.80
2018-12-17T10:40:56.390Z,5.30
2018-12-17T10:43:23.070Z,5.97
2018-12-17T10:45:49.784Z,5.43
2018-12-17T10:48:16.463Z,5.97
2018-12-17T10:50:43.176Z,5.17
2018-12-17T10:53:09.949Z,6.50
2018-12-17T10:55:36.772Z,5.23
2018-12-17T10:58:03.511Z,5.63
2018-12-17T11:00:39.396Z,5.90
2018-12-17T11:03:06.915Z,5.90
2018-12-17T11:05:34.452Z,6.33
2018-12-17T11:08:01.228Z,6.00
2018-12-17T11:10:27.936Z,4.90
2018-12-17T11:12:54.617Z,4.63
2018-12-17T11:15:21.321Z,5.47
2018-12-17T11:17:47.998Z,5.53
2018-12-17T11:20:14.704Z,4.87
2018-12-17T11:22:41.408Z,6.17
2018-12-17T11:25:08.188Z,5.13
2018-12-17T11:27:34.893Z,4.83
2018-12-17T11:30:01.764Z,5.10
2018-12-17T11:32:28.449Z,5.27
2018-12-17T11:34:55.165Z,4.77
2018-12-17T11:37:21.856Z,5.43
2018-12-17T11:39:48.536Z,5.07
2018-12-17T11:42:15.239Z,5.60
2018-12-17T11:44:41.921Z,5.17
2018-12-17T11:47:08.619Z,5.60
2018-12-17T11:49:35.331Z,5.87
2018-12-17T11:52:02.273Z,5.17
2018-12-17T11:54:28.974Z,5.40
2018-12-17T12:00:04.023Z,5.62
2018-12-17T12:02:30.826Z,5.43
2018-12-17T12:04:57.499Z,5.90
2018-12-17T12:07:24.298Z,4.33
2018-12-17T12:09:51.035Z,5.03
2018-12-17T12:12:17.737Z,5.50
2018-12-17T12:14:44.413Z,4.77
2018-12-17T12:17:11.248Z,6.43
2018-12-17T12:19:38.104Z,4.97
2018-12-17T12:22:04.952Z,6.33
2018-12-17T12:24:31.764Z,4.80
2018-12-17T12:26:58.507Z,5.40
2018-12-17T12:29:25.177Z,4.83
2018-12-17T12:31:51.882Z,4.77
2018-12-17T12:34:18.649Z,6.07
2018-12-17T12:36:45.370Z,5.70
2018-12-17T12:39:12.232Z,5.33
2018-12-17T12:41:39.018Z,5.10
2018-12-17T12:44:08.810Z,4.30
2018-12-17T12:46:34.635Z,5.40
2018-12-17T12:49:01.421Z,5.60
2018-12-17T12:51:32.578Z,4.80
2018-12-17T12:53:56.890Z,5.90
2018-12-17T12:56:23.601Z,6.03
2018-12-17T12:58:50.280Z,5.40
2018-12-17T13:01:17.005Z,4.33
2018-12-17T13:03:43.678Z,5.20
2018-12-17T13:06:10.391Z,4.80
2018-12-17T13:08:37.160Z,5.20
2018-12-17T13:11:04.084Z,4.20
2018-12-17T13:13:30.761Z,5.50
2018-12-17T13:15:57.444Z,4.80
2018-12-17T13:18:24.153Z,5.50
2018-12-17T13:20:50.836Z,4.40
2018-12-17T13:23:17.539Z,5.63
2018-12-17T13:25:45.598Z,5.70
2018-12-17T13:28:12.379Z,5.03
2018-12-17T13:30:39.103Z,5.07
2018-12-17T13:33:05.808Z,4.13
2018-12-17T13:35:32.669Z,4.80
2018-12-17T13:37:59.448Z,4.83
2018-12-17T13:40:26.133Z,4.70
2018-12-17T13:42:52.851Z,5.40
2018-12-17T13:45:19.531Z,5.27
2018-12-17T13:47:46.238Z,4.80
2018-12-17T13:50:18.711Z,5.07
2018-12-17T13:52:45.411Z,4.77
2018-12-17T13:55:12.164Z,4.00
2018-12-17T13:57:38.947Z,4.20
2018-12-17T14:00:07.137Z,4.10
2018-12-17T14:02:34.000Z,5.10
2018-12-17T14:05:00.728Z,6.03
2018-12-17T14:07:27.435Z,4.60
2018-12-17T14:09:59.729Z,4.50
2018-12-17T14:12:26.431Z,4.50
2018-12-17T14:14:53.117Z,4.33
2018-12-17T14:17:25.580Z,4.53
2018-12-17T14:19:57.964Z,3.63
2018-12-17T14:22:24.895Z,4.70
2018-12-17T14:24:51.596Z,4.93
2018-12-17T14:27:18.309Z,4.00
2018-12-17T14:29:44.987Z,4.60
2018-12-17T14:32:11.839Z,3.63
2018-12-17T14:34:38.555Z,4.63
2018-12-17T14:37:05.564Z,4.43
2018-12-17T14:39:32.241Z,4.40
2018-12-17T14:41:58.924Z,4.20
2018-12-17T14:44:31.194Z,4.00
2018-12-17T14:46:57.949Z,3.93
2018-12-17T14:49:24.657Z,4.30
2018-12-17T14:51:51.334Z,3.70
2018-12-17T14:54:18.042Z,4.27
2018-12-17T14:56:44.726Z,3.57
2018-12-17T14:59:11.431Z,4.07
2018-12-17T15:01:38.167Z,4.10
2018-12-17T15:04:04.976Z,3.40
2018-12-17T15:06:31.657Z,3.20
2018-12-17T15:08:58.378Z,3.93
2018-12-17T15:11:25.063Z,4.27
2018-12-17T15:13:51.839Z,3.27
2018-12-17T15:16:18.515Z,3.40
2018-12-17T15:18:45.213Z,3.20
2018-12-17T15:21:11.889Z,3.30
2018-12-17T15:23:38.609Z,3.30
2018-12-17T15:26:05.809Z,3.40
2018-12-17T15:28:32.539Z,3.50
2018-12-17T15:30:59.224Z,4.27
2018-12-17T15:33:25.931Z,3.00
2018-12-17T15:35:52.612Z,3.30
2018-12-17T15:38:19.312Z,3.63
2018-12-17T15:40:45.987Z,3.00
2018-12-17T15:43:12.696Z,3.13
2018-12-17T15:45:39.404Z,3.30
2018-12-17T15:48:06.160Z,3.40
2018-12-17T15:50:32.889Z,3.50
2018-12-17T15:52:59.900Z,3.83
2018-12-17T15:55:26.593Z,3.30
2018-12-17T15:57:53.279Z,2.77
2018-12-17T16:00:20.009Z,3.10
2018-12-17T16:02:46.698Z,2.70
2018-12-17T16:05:13.402Z,3.60
2018-12-17T16:07:40.079Z,2.83
2018-12-17T16:10:07.031Z,3.20
2018-12-17T16:12:33.714Z,3.50
2018-12-17T16:15:00.433Z,3.67
2018-12-17T16:17:27.121Z,2.80
2018-12-17T16:19:53.827Z,2.90
2018-12-17T16:22:20.504Z,3.47
2018-12-17T16:24:47.215Z,3.00
2018-12-17T16:27:19.312Z,2.93
2018-12-17T16:29:42.619Z,2.73
2018-12-17T16:32:09.387Z,2.93
2018-12-17T16:34:36.157Z,2.93
2018-12-17T16:37:03.081Z,3.10
2018-12-17T16:39:31.199Z,3.30
2018-12-17T16:41:58.040Z,3.60
2018-12-17T16:44:24.743Z,3.33
2018-12-17T16:46:51.419Z,3.20
2018-12-17T16:49:18.126Z,2.57
2018-12-17T16:51:44.834Z,3.37
2018-12-17T16:54:11.753Z,3.13
2018-12-17T16:56:38.509Z,3.40
2018-12-17T16:59:05.402Z,4.10
2018-12-17T17:01:32.136Z,2.50
2018-12-17T17:03:58.841Z,2.63
2018-12-17T17:06:25.521Z,3.27
2018-12-17T17:08:52.495Z,2.90
2018-12-17T17:11:19.174Z,3.07
2018-12-17T17:13:45.939Z,2.60
2018-12-17T17:16:12.694Z,2.90
2018-12-17T17:18:39.464Z,2.67
2018-12-17T17:21:06.475Z,3.23
2018-12-17T17:23:33.204Z,3.10
2018-12-17T17:25:59.920Z,3.27
2018-12-17T17:28:26.615Z,2.40
2018-12-17T17:30:53.322Z,2.67
2018-12-17T17:33:20.004Z,2.70
2018-12-17T17:35:46.747Z,3.07
2018-12-17T17:38:13.493Z,2.47
2018-12-17T17:40:40.302Z,2.80
2018-12-17T17:43:07.065Z,2.40
2018-12-17T17:45:33.882Z,3.57
2018-12-17T17:48:00.557Z,2.47
2018-12-17T17:50:27.264Z,2.73
2018-12-17T17:52:53.944Z,3.10
2018-12-17T17:55:20.652Z,2.87
2018-12-17T17:57:47.339Z,2.45
2018-12-17T18:00:14.366Z,2.83
2018-12-17T18:02:41.053Z,2.70
2018-12-17T18:05:07.912Z,3.17
2018-12-17T18:07:34.626Z,3.20
2018-12-17T18:10:01.344Z,3.17
2018-12-17T18:12:28.027Z,3.43
2018-12-17T18:14:54.727Z,2.70
2018-12-17T18:17:21.410Z,2.80
2018-12-17T18:19:48.372Z,3.13
2018-12-17T18:22:15.444Z,3.75
2018-12-17T18:24:42.180Z,2.73
2018-12-17T18:27:09.126Z,2.80
2018-12-17T18:29:35.841Z,2.73
2018-12-17T18:32:02.576Z,3.17
2018-12-17T18:34:29.416Z,3.40
2018-12-17T18:36:56.090Z,3.03
2018-12-17T18:39:22.944Z,2.50
2018-12-17T18:41:49.662Z,3.37
2018-12-17T18:44:16.344Z,3.07
2018-12-17T18:46:43.204Z,3.67
2018-12-17T18:49:09.904Z,3.00
2018-12-17T18:51:36.629Z,2.77
2018-12-17T18:54:03.323Z,3.43
2018-12-17T18:56:30.031Z,3.03
2018-12-17T18:58:56.716Z,2.87
2018-12-17T19:01:23.429Z,3.20
2018-12-17T19:03:50.103Z,2.93
2018-12-17T19:06:16.834Z,3.00
2018-12-17T19:08:43.609Z,3.30
2018-12-17T19:11:10.318Z,3.20
2018-12-17T19:13:37.158Z,2.93
2018-12-17T19:16:03.867Z,4.60
2018-12-17T19:18:30.547Z,2.87
2018-12-17T19:20:57.344Z,3.20
2018-12-17T19:23:24.016Z,2.80
2018-12-17T19:25:50.728Z,2.80
2018-12-17T19:28:21.651Z,3.10
2018-12-17T19:30:48.365Z,2.80
2018-12-17T19:33:15.302Z,2.50
2018-12-17T19:35:42.132Z,3.93
2018-12-17T19:38:08.947Z,4.40
2018-12-17T19:40:35.668Z,4.50
2018-12-17T19:43:02.355Z,4.90
2018-12-17T19:45:29.114Z,4.80
2018-12-17T19:47:55.788Z,4.50
2018-12-17T19:50:22.491Z,3.40
2018-12-17T19:52:49.760Z,3.83
2018-12-17T19:55:16.671Z,3.03
2018-12-17T19:57:43.361Z,4.27
2018-12-17T20:00:10.334Z,5.47
2018-12-17T20:02:37.022Z,3.90
2018-12-17T20:05:04.200Z,3.60
2018-12-17T20:07:30.881Z,3.40
2018-12-17T20:09:57.649Z,3.07
2018-12-17T20:12:24.358Z,3.80
2018-12-17T20:14:51.040Z,3.83
2018-12-17T20:17:17.752Z,3.50
2018-12-17T20:19:44.521Z,3.00
2018-12-17T20:22:11.277Z,3.20
2018-12-17T20:24:38.164Z,3.77
2018-12-17T20:27:04.873Z,3.30
2018-12-17T20:29:31.552Z,4.03
2018-12-17T20:31:58.267Z,4.17
2018-12-17T20:34:24.952Z,4.23
2018-12-17T20:36:51.660Z,3.57
2018-12-17T20:39:18.375Z,3.57
2018-12-17T20:41:45.271Z,3.50
2018-12-17T20:44:11.984Z,3.57
2018-12-17T20:46:38.903Z,3.27
2018-12-17T20:49:05.584Z,3.70
2018-12-17T20:51:32.303Z,3.13
2018-12-17T20:53:59.047Z,3.70
2018-12-17T20:56:25.819Z,2.77
2018-12-17T20:58:52.505Z,3.80
2018-12-17T21:01:19.349Z,2.80
2018-12-17T21:03:46.118Z,3.17
2018-12-17T21:06:13.005Z,3.03
2018-12-17T21:08:39.904Z,3.47
2018-12-17T21:11:06.677Z,3.70
2018-12-17T21:13:33.352Z,3.30
2018-12-17T21:16:00.057Z,2.50
2018-12-17T21:18:26.738Z,2.77
2018-12-17T21:20:53.443Z,2.70
2018-12-17T21:23:20.549Z,2.50
2018-12-17T21:25:47.302Z,3.00
2018-12-17T21:28:13.975Z,2.90
2018-12-17T21:30:40.848Z,3.13
2018-12-17T21:33:07.583Z,3.57
2018-12-17T21:35:34.364Z,3.40
2018-12-17T21:38:01.031Z,2.57
2018-12-17T21:40:27.714Z,3.10
2018-12-17T21:42:54.425Z,2.80
2018-12-17T21:45:21.106Z,2.93
2018-12-17T21:47:47.807Z,3.30
2018-12-17T21:50:14.525Z,2.50
2018-12-17T21:52:41.333Z,2.87
2018-12-17T21:55:08.129Z,3.00
2018-12-17T21:57:34.837Z,3.27
2018-12-17T22:00:01.520Z,7.13
2018-12-17T22:02:28.230Z,7.93
2018-12-17T22:04:54.917Z,8.20
2018-12-17T22:07:21.639Z,8.30
2018-12-17T22:09:48.319Z,8.60
2018-12-17T22:12:15.035Z,7.50
2018-12-17T22:14:41.806Z,7.70
2018-12-17T22:17:08.559Z,7.60
2018-12-17T22:19:35.242Z,6.63
2018-12-17T22:22:01.945Z,8.03
2018-12-17T22:24:28.635Z,7.40
2018-12-17T22:26:55.355Z,7.40
2018-12-17T22:29:22.035Z,6.03
2018-12-17T22:31:48.752Z,6.10
2018-12-17T22:34:15.434Z,7.07
2018-12-17T22:36:42.639Z,5.33
2018-12-17T22:39:09.323Z,6.10
2018-12-17T22:41:36.037Z,6.43
2018-12-17T22:44:02.828Z,6.43
2018-12-17T22:46:29.536Z,6.17
2018-12-17T22:48:56.218Z,5.23
2018-12-17T22:51:22.932Z,5.30
2018-12-17T22:53:49.609Z,5.50
2018-12-17T22:56:16.363Z,5.87
2018-12-17T22:58:43.220Z,5.63
2018-12-17T23:01:09.965Z,6.60
2018-12-17T23:03:36.708Z,5.00
2018-12-17T23:06:03.510Z,5.00
2018-12-17T23:08:30.192Z,4.33
2018-12-17T23:11:02.913Z,4.77
2018-12-17T23:13:35.613Z,6.20
2018-12-17T23:16:08.345Z,4.70
2018-12-17T23:18:34.861Z,4.67
2018-12-17T23:21:01.550Z,5.00
2018-12-17T23:23:28.352Z,6.33
2018-12-17T23:25:55.043Z,4.90
2018-12-17T23:28:21.854Z,5.57
2018-12-17T23:30:48.777Z,4.27
2018-12-17T23:33:15.570Z,4.40
2018-12-17T23:35:42.376Z,4.60
2018-12-17T23:38:09.132Z,4.50
2018-12-17T23:40:35.808Z,3.87
2018-12-17T23:43:02.511Z,5.10
2018-12-17T23:45:29.191Z,4.10
2018-12-17T23:47:55.915Z,3.60
2018-12-17T23:50:22.627Z,3.90
2018-12-17T23:52:49.333Z,4.80
2018-12-17T23:55:16.036Z,4.50
2018-12-17T23:57:42.943Z,4.00
